createdAt,value
2017-04-30T00:01:55.392Z,46.86
2017-04-30T00:04:22.913Z,46.90
2017-04-30T00:06:50.475Z,47.59
2017-04-30T00:09:17.982Z,46.86
2017-04-30T00:11:45.649Z,47.21
2017-04-30T00:14:13.163Z,47.28
2017-04-30T00:16:40.672Z,47.29
2017-04-30T00:19:08.324Z,46.95
2017-04-30T00:21:35.843Z,47.16
2017-04-30T00:24:03.429Z,46.70
2017-04-30T00:26:31.000Z,46.71
2017-04-30T00:28:58.719Z,47.29
2017-04-30T00:31:26.235Z,47.24
2017-04-30T00:33:53.758Z,46.04
2017-04-30T00:36:21.327Z,45.89
2017-04-30T00:38:48.951Z,46.97
2017-04-30T00:41:16.716Z,46.89
2017-04-30T00:43:44.240Z,48.20
2017-04-30T00:46:11.758Z,48.01
2017-04-30T00:48:39.336Z,47.36
2017-04-30T00:51:06.943Z,46.65
2017-04-30T00:53:34.765Z,46.33
2017-04-30T00:56:02.281Z,47.22
2017-04-30T00:58:29.802Z,47.98
2017-04-30T01:00:57.407Z,48.46
2017-04-30T01:03:24.951Z,48.25
2017-04-30T01:05:52.511Z,47.20
2017-04-30T01:08:20.059Z,46.94
2017-04-30T01:10:47.880Z,47.86
2017-04-30T01:13:15.435Z,48.19
2017-04-30T01:15:42.948Z,47.46
2017-04-30T01:18:10.497Z,46.59
2017-04-30T01:20:38.311Z,46.31
2017-04-30T01:23:05.828Z,46.39
2017-04-30T01:25:33.343Z,46.18
2017-04-30T01:28:00.898Z,46.65
2017-04-30T01:30:28.443Z,46.38
2017-04-30T01:32:56.033Z,46.30
2017-04-30T01:35:23.552Z,46.18
2017-04-30T01:37:51.079Z,47.25
2017-04-30T01:40:19.688Z,45.96
2017-04-30T01:42:47.255Z,46.94
2017-04-30T01:45:14.819Z,47.34
2017-04-30T01:47:42.441Z,47.42
2017-04-30T01:50:10.028Z,46.59
2017-04-30T01:52:37.584Z,47.14
2017-04-30T01:55:05.082Z,46.63
2017-04-30T01:57:32.639Z,45.46
2017-04-30T02:00:00.163Z,45.41
2017-04-30T02:02:27.739Z,45.20
2017-04-30T02:04:55.260Z,46.17
2017-04-30T02:07:22.777Z,46.42
2017-04-30T02:09:50.304Z,45.97
2017-04-30T02:12:17.831Z,45.87
2017-04-30T02:14:45.653Z,45.97
2017-04-30T02:17:13.157Z,45.84
2017-04-30T02:19:40.647Z,45.87
2017-04-30T02:22:08.455Z,46.28
2017-04-30T02:24:35.971Z,46.20
2017-04-30T02:27:03.527Z,46.03
2017-04-30T02:29:31.089Z,46.34
2017-04-30T02:31:58.739Z,46.30
2017-04-30T02:34:26.710Z,47.29
2017-04-30T02:36:54.227Z,48.45
2017-04-30T02:39:21.743Z,47.45
2017-04-30T02:41:49.279Z,47.31
2017-04-30T02:44:16.875Z,47.50
2017-04-30T02:46:44.647Z,46.99
2017-04-30T02:49:12.177Z,47.06
2017-04-30T02:51:39.692Z,47.01
2017-04-30T02:54:07.236Z,46.74
2017-04-30T02:56:34.759Z,47.53
2017-04-30T02:59:02.576Z,47.78
2017-04-30T03:01:30.130Z,47.68
2017-04-30T03:03:57.655Z,48.18
2017-04-30T03:06:25.251Z,48.42
2017-04-30T03:08:52.890Z,49.38
2017-04-30T03:11:20.810Z,49.70
2017-04-30T03:13:48.320Z,49.71
2017-04-30T03:16:15.836Z,49.66
2017-04-30T03:18:43.374Z,50.26
2017-04-30T03:21:10.884Z,50.33
2017-04-30T03:23:38.452Z,48.79
2017-04-30T03:26:05.983Z,49.73
2017-04-30T03:28:33.497Z,50.11
2017-04-30T03:31:01.351Z,50.27
2017-04-30T03:33:28.862Z,50.38
2017-04-30T03:35:56.427Z,50.49
2017-04-30T03:38:35.788Z,49.41
2017-04-30T03:41:15.147Z,50.53
2017-04-30T03:43:54.728Z,49.82
2017-04-30T03:46:33.855Z,50.87
2017-04-30T03:49:13.428Z,51.48
2017-04-30T03:51:52.556Z,52.19
2017-04-30T03:54:31.728Z,51.09
2017-04-30T03:57:11.050Z,51.53
2017-04-30T03:59:50.542Z,51.43
2017-04-30T04:02:29.767Z,49.97
2017-04-30T04:05:08.842Z,49.63
2017-04-30T04:07:48.084Z,49.93
2017-04-30T04:10:27.591Z,48.91
2017-04-30T04:13:06.903Z,48.59
2017-04-30T04:15:46.205Z,48.81
2017-04-30T04:18:25.434Z,49.13
2017-04-30T04:21:04.507Z,48.99
2017-04-30T04:23:43.745Z,48.84
2017-04-30T04:26:22.775Z,48.69
2017-04-30T04:29:02.004Z,48.64
2017-04-30T04:31:41.508Z,48.75
2017-04-30T04:34:20.783Z,48.64
2017-04-30T04:36:59.987Z,48.56
2017-04-30T04:39:39.019Z,49.24
2017-04-30T04:42:18.468Z,48.69
2017-04-30T04:44:57.705Z,49.16
2017-04-30T04:47:36.992Z,49.35
2017-04-30T04:50:16.132Z,48.91
2017-04-30T04:52:55.639Z,48.49
2017-04-30T04:55:35.188Z,48.74
2017-04-30T04:58:14.511Z,48.48
2017-04-30T05:00:53.851Z,48.77
2017-04-30T05:03:33.197Z,48.92
2017-04-30T05:06:12.512Z,49.49
2017-04-30T05:08:52.181Z,49.17
2017-04-30T05:11:31.655Z,49.01
2017-04-30T05:14:10.891Z,49.28
2017-04-30T05:16:50.114Z,49.93
2017-04-30T05:19:29.936Z,49.57
2017-04-30T05:22:09.301Z,49.74
2017-04-30T05:24:48.716Z,49.56
2017-04-30T05:27:28.204Z,49.59
2017-04-30T05:30:07.942Z,49.56
2017-04-30T05:32:47.268Z,49.54
2017-04-30T05:35:27.089Z,49.50
2017-04-30T05:38:06.478Z,50.05
2017-04-30T05:40:45.864Z,49.47
2017-04-30T05:43:25.138Z,49.59
2017-04-30T05:46:04.534Z,49.08
2017-04-30T05:48:43.909Z,49.23
2017-04-30T05:51:23.709Z,49.25
2017-04-30T05:54:03.089Z,49.23
2017-04-30T05:56:42.456Z,49.09
2017-04-30T05:59:21.795Z,48.78
2017-04-30T06:02:01.515Z,49.00
2017-04-30T06:04:40.688Z,48.87
2017-04-30T06:07:20.486Z,48.68
2017-04-30T06:09:59.727Z,47.95
2017-04-30T06:12:39.404Z,48.41
2017-04-30T06:15:18.568Z,48.30
2017-04-30T06:17:58.379Z,48.06
2017-04-30T06:20:37.730Z,48.30
2017-04-30T06:23:17.004Z,48.23
2017-04-30T06:25:56.307Z,47.51
2017-04-30T06:28:35.935Z,47.45
2017-04-30T06:31:15.425Z,47.74
2017-04-30T06:33:55.106Z,47.47
2017-04-30T06:36:34.344Z,47.70
2017-04-30T06:39:14.199Z,48.03
2017-04-30T06:41:53.573Z,47.56
2017-04-30T06:44:33.058Z,47.26
2017-04-30T06:47:12.243Z,47.47
2017-04-30T06:49:52.057Z,47.33
2017-04-30T06:52:31.183Z,47.87
2017-04-30T06:55:11.048Z,47.18
2017-04-30T06:57:50.404Z,47.15
2017-04-30T07:00:30.185Z,47.43
2017-04-30T07:03:09.532Z,47.37
2017-04-30T07:05:49.680Z,47.37
2017-04-30T07:08:28.963Z,46.86
2017-04-30T07:11:08.706Z,47.21
2017-04-30T07:13:47.887Z,47.06
2017-04-30T07:16:27.739Z,47.28
2017-04-30T07:19:07.116Z,47.44
2017-04-30T07:21:46.479Z,47.23
2017-04-30T07:24:25.884Z,46.96
2017-04-30T07:27:05.619Z,46.53
2017-04-30T07:29:44.789Z,46.47
2017-04-30T07:32:24.293Z,46.51
2017-04-30T07:35:03.701Z,46.38
2017-04-30T07:37:43.148Z,46.99
2017-04-30T07:40:22.480Z,46.16
2017-04-30T07:42:50.348Z,46.15
2017-04-30T07:45:17.911Z,46.80
2017-04-30T07:47:45.434Z,45.66
2017-04-30T07:50:12.992Z,45.53
2017-04-30T07:52:40.520Z,45.70
2017-04-30T07:55:08.094Z,46.21
2017-04-30T07:57:35.635Z,44.89
2017-04-30T08:00:03.196Z,45.41
2017-04-30T08:02:30.722Z,44.73
2017-04-30T08:04:58.537Z,44.94
2017-04-30T08:07:26.056Z,44.94
2017-04-30T08:09:53.634Z,44.81
2017-04-30T08:12:21.203Z,44.69
2017-04-30T08:14:48.723Z,44.50
2017-04-30T08:17:16.559Z,43.99
2017-04-30T08:19:44.087Z,44.32
2017-04-30T08:22:11.656Z,44.65
2017-04-30T08:24:39.213Z,44.41
2017-04-30T08:27:06.732Z,43.99
2017-04-30T08:29:34.352Z,43.74
2017-04-30T08:32:01.903Z,44.21
2017-04-30T08:34:30.604Z,43.89
2017-04-30T08:36:58.199Z,43.50
2017-04-30T08:39:25.843Z,43.10
2017-04-30T08:41:53.461Z,43.11
2017-04-30T08:44:20.969Z,43.00
2017-04-30T08:46:48.604Z,42.51
2017-04-30T08:49:16.124Z,43.05
2017-04-30T08:51:44.136Z,42.73
2017-04-30T08:54:11.652Z,42.63
2017-04-30T08:56:39.178Z,41.98
2017-04-30T08:59:06.729Z,42.56
2017-04-30T09:01:34.250Z,41.08
2017-04-30T09:04:01.832Z,41.76
2017-04-30T09:06:29.336Z,41.88
2017-04-30T09:08:57.043Z,41.48
2017-04-30T09:11:24.568Z,40.77
2017-04-30T09:13:52.099Z,41.54
2017-04-30T09:16:19.694Z,39.78
2017-04-30T09:18:47.207Z,38.98
2017-04-30T09:21:14.941Z,38.83
2017-04-30T09:23:42.463Z,38.09
2017-04-30T09:26:09.991Z,38.01
2017-04-30T09:28:37.559Z,38.59
2017-04-30T09:31:05.084Z,38.34
2017-04-30T09:33:32.999Z,37.90
2017-04-30T09:36:00.552Z,36.94
2017-04-30T09:38:28.084Z,36.51
2017-04-30T09:40:55.666Z,37.38
2017-04-30T09:43:23.184Z,35.76
2017-04-30T09:45:50.747Z,35.73
2017-04-30T09:48:18.269Z,35.92
2017-04-30T09:50:46.102Z,35.93
2017-04-30T09:53:13.655Z,36.79
2017-04-30T09:55:41.179Z,35.97
2017-04-30T09:58:08.752Z,35.42
2017-04-30T10:00:36.290Z,35.39
2017-04-30T10:03:03.968Z,36.04
2017-04-30T10:05:31.491Z,35.65
2017-04-30T10:07:59.008Z,36.45
2017-04-30T10:10:26.581Z,34.54
2017-04-30T10:12:54.147Z,35.31
2017-04-30T10:15:21.848Z,33.60
2017-04-30T10:17:49.574Z,33.19
2017-04-30T10:20:17.186Z,34.31
2017-04-30T10:22:44.766Z,32.45
2017-04-30T10:25:12.303Z,33.30
2017-04-30T10:27:40.055Z,33.02
2017-04-30T10:30:07.592Z,33.13
2017-04-30T10:32:35.127Z,33.58
2017-04-30T10:35:02.708Z,31.25
2017-04-30T10:37:30.231Z,31.51
2017-04-30T10:39:57.794Z,31.54
2017-04-30T10:42:25.341Z,31.55
2017-04-30T10:44:53.078Z,31.20
2017-04-30T10:47:20.636Z,31.86
2017-04-30T10:49:48.223Z,32.39
2017-04-30T10:52:15.829Z,32.93
2017-04-30T10:54:43.365Z,32.45
2017-04-30T10:57:10.923Z,32.04
2017-04-30T10:59:38.464Z,31.55
2017-04-30T11:02:06.148Z,31.30
2017-04-30T11:04:33.668Z,31.73
2017-04-30T11:07:01.184Z,32.04
2017-04-30T11:09:28.899Z,29.86
2017-04-30T11:11:56.423Z,30.34
2017-04-30T11:14:23.935Z,30.88
2017-04-30T11:16:51.741Z,30.15
2017-04-30T11:19:19.288Z,30.12
2017-04-30T11:21:46.828Z,29.29
2017-04-30T11:24:14.437Z,30.74
2017-04-30T11:26:41.979Z,30.84
2017-04-30T11:29:09.527Z,30.02
2017-04-30T11:31:37.054Z,29.71
2017-04-30T11:34:05.050Z,29.75
2017-04-30T11:36:32.579Z,29.14
2017-04-30T11:39:00.100Z,29.40
2017-04-30T11:41:27.671Z,29.53
2017-04-30T11:43:55.183Z,29.13
2017-04-30T11:46:22.949Z,29.67
2017-04-30T11:48:50.467Z,30.16
2017-04-30T11:51:17.981Z,29.23
2017-04-30T11:53:45.567Z,29.82
2017-04-30T11:56:13.087Z,28.54
2017-04-30T11:58:40.943Z,28.42
2017-04-30T12:01:08.465Z,28.49
2017-04-30T12:03:36.060Z,28.84
2017-04-30T12:06:03.787Z,27.81
2017-04-30T12:08:31.291Z,27.08
2017-04-30T12:10:59.067Z,27.76
2017-04-30T12:13:26.589Z,26.81
2017-04-30T12:15:54.183Z,26.04
2017-04-30T12:18:21.758Z,26.04
2017-04-30T12:20:49.292Z,27.17
2017-04-30T12:23:16.979Z,27.70
2017-04-30T12:25:44.618Z,28.42
2017-04-30T12:28:12.159Z,28.10
2017-04-30T12:30:39.720Z,28.17
2017-04-30T12:33:07.240Z,28.09
2017-04-30T12:35:34.944Z,28.34
2017-04-30T12:38:02.459Z,28.47
2017-04-30T12:40:29.971Z,27.45
2017-04-30T12:42:57.589Z,27.44
2017-04-30T12:45:25.124Z,27.44
2017-04-30T12:47:52.840Z,26.57
2017-04-30T12:50:20.380Z,26.71
2017-04-30T12:52:47.922Z,26.65
2017-04-30T12:55:15.496Z,26.91
2017-04-30T12:57:43.083Z,26.99
2017-04-30T13:00:10.850Z,26.31
2017-04-30T13:02:38.410Z,26.04
2017-04-30T13:05:05.924Z,26.47
2017-04-30T13:07:33.478Z,26.61
2017-04-30T13:10:01.048Z,26.53
2017-04-30T13:12:28.596Z,25.65
2017-04-30T13:14:56.148Z,26.38
2017-04-30T13:17:23.967Z,26.52
2017-04-30T13:19:51.497Z,26.06
2017-04-30T13:22:19.015Z,25.67
2017-04-30T13:24:46.567Z,25.53
2017-04-30T13:27:14.143Z,25.55
2017-04-30T13:29:41.699Z,25.29
2017-04-30T13:32:09.214Z,24.96
2017-04-30T13:34:36.964Z,25.19
2017-04-30T13:37:04.507Z,25.42
2017-04-30T13:39:32.018Z,25.18
2017-04-30T13:41:59.584Z,25.20
2017-04-30T13:44:27.095Z,24.45
2017-04-30T13:46:55.484Z,24.15
2017-04-30T13:49:23.000Z,24.21
2017-04-30T13:51:50.791Z,24.07
2017-04-30T13:54:18.320Z,24.19
2017-04-30T13:56:45.848Z,24.52
2017-04-30T13:59:13.447Z,23.97
2017-04-30T14:01:40.966Z,23.74
2017-04-30T14:04:08.727Z,24.27
2017-04-30T14:06:36.259Z,23.53
2017-04-30T14:09:03.906Z,24.34
2017-04-30T14:11:31.480Z,23.90
2017-04-30T14:13:59.028Z,23.71
2017-04-30T14:16:26.904Z,23.65
2017-04-30T14:18:54.474Z,22.58
2017-04-30T14:21:21.991Z,23.05
2017-04-30T14:23:49.591Z,22.48
2017-04-30T14:26:17.106Z,22.28
2017-04-30T14:28:44.891Z,23.27
2017-04-30T14:31:12.439Z,23.50
2017-04-30T14:33:39.978Z,22.89
2017-04-30T14:36:07.569Z,23.17
2017-04-30T14:38:35.100Z,22.59
2017-04-30T14:41:02.675Z,23.19
2017-04-30T14:43:30.217Z,23.12
2017-04-30T14:45:57.750Z,22.44
2017-04-30T14:48:25.340Z,22.31
2017-04-30T14:50:52.886Z,22.68
2017-04-30T14:53:20.629Z,23.65
2017-04-30T14:55:48.177Z,23.63
2017-04-30T14:58:15.744Z,24.20
2017-04-30T15:00:43.377Z,23.89
2017-04-30T15:03:10.902Z,23.54
2017-04-30T15:05:38.781Z,23.75
2017-04-30T15:08:06.313Z,24.07
2017-04-30T15:10:33.847Z,24.18
2017-04-30T15:13:01.400Z,23.95
2017-04-30T15:15:28.964Z,24.50
2017-04-30T15:17:56.521Z,24.77
2017-04-30T15:20:25.893Z,24.59
2017-04-30T15:22:53.446Z,24.34
2017-04-30T15:25:21.054Z,24.23
2017-04-30T15:27:48.636Z,24.51
2017-04-30T15:30:16.655Z,24.47
2017-04-30T15:32:44.191Z,24.29
2017-04-30T15:35:11.723Z,24.41
2017-04-30T15:37:39.325Z,25.06
2017-04-30T15:40:06.856Z,24.96
2017-04-30T15:42:34.393Z,25.11
2017-04-30T15:45:01.971Z,25.07
2017-04-30T15:47:29.489Z,24.84
2017-04-30T15:49:57.056Z,24.63
2017-04-30T15:52:24.623Z,24.51
2017-04-30T15:54:52.631Z,24.73
2017-04-30T15:57:21.012Z,24.94
2017-04-30T15:59:48.552Z,25.00
2017-04-30T16:02:16.395Z,24.91
2017-04-30T16:04:43.925Z,24.93
2017-04-30T16:07:11.462Z,24.57
2017-04-30T16:09:39.186Z,24.83
2017-04-30T16:12:06.711Z,25.29
2017-04-30T16:14:34.310Z,24.68
2017-04-30T16:17:01.884Z,24.99
2017-04-30T16:19:29.497Z,24.54
2017-04-30T16:21:57.412Z,24.68
2017-04-30T16:24:24.995Z,24.88
2017-04-30T16:26:52.538Z,25.21
2017-04-30T16:29:20.265Z,25.02
2017-04-30T16:31:47.823Z,24.80
2017-04-30T16:34:15.696Z,24.84
2017-04-30T16:36:43.229Z,25.02
2017-04-30T16:39:10.788Z,25.68
2017-04-30T16:41:38.352Z,24.77
2017-04-30T16:44:05.884Z,25.09
2017-04-30T16:46:33.609Z,25.22
2017-04-30T16:49:01.212Z,24.70
2017-04-30T16:51:28.742Z,24.61
2017-04-30T16:53:56.316Z,23.98
2017-04-30T16:56:23.843Z,23.83
2017-04-30T16:58:51.424Z,23.70
2017-04-30T17:01:18.971Z,24.10
2017-04-30T17:03:46.929Z,24.11
2017-04-30T17:06:14.565Z,23.87
2017-04-30T17:08:42.135Z,24.39
2017-04-30T17:11:09.765Z,24.64
2017-04-30T17:13:37.308Z,25.04
2017-04-30T17:16:04.923Z,25.33
2017-04-30T17:18:32.508Z,25.10
2017-04-30T17:21:00.647Z,24.81
2017-04-30T17:23:28.192Z,25.22
2017-04-30T17:25:55.941Z,24.61
2017-04-30T17:28:23.494Z,24.00
2017-04-30T17:30:51.082Z,24.17
2017-04-30T17:33:18.656Z,24.33
2017-04-30T17:35:46.201Z,24.39
2017-04-30T17:38:13.773Z,24.54
2017-04-30T17:40:41.360Z,24.46
2017-04-30T17:43:09.102Z,24.23
2017-04-30T17:45:36.639Z,24.64
2017-04-30T17:48:04.211Z,25.01
2017-04-30T17:50:31.808Z,24.84
2017-04-30T17:52:59.396Z,24.88
2017-04-30T17:55:27.111Z,24.99
2017-04-30T17:57:54.702Z,25.79
2017-04-30T18:00:22.287Z,25.99
2017-04-30T18:02:49.878Z,26.29
2017-04-30T18:05:17.486Z,26.68
2017-04-30T18:07:45.499Z,26.91
2017-04-30T18:10:13.068Z,27.11
2017-04-30T18:12:40.603Z,27.33
2017-04-30T18:15:08.199Z,27.71
2017-04-30T18:17:35.727Z,27.78
2017-04-30T18:20:03.643Z,28.06
2017-04-30T18:22:31.163Z,28.40
2017-04-30T18:24:58.690Z,28.76
2017-04-30T18:27:26.272Z,28.48
2017-04-30T18:29:53.794Z,28.53
2017-04-30T18:32:21.388Z,28.80
2017-04-30T18:34:48.995Z,29.20
2017-04-30T18:37:16.518Z,29.06
2017-04-30T18:39:44.162Z,29.53
2017-04-30T18:42:11.695Z,29.56
2017-04-30T18:44:39.216Z,29.89
2017-04-30T18:47:06.791Z,29.70
2017-04-30T18:49:34.355Z,30.08
2017-04-30T18:52:02.070Z,29.89
2017-04-30T18:54:29.607Z,29.84
2017-04-30T18:56:57.167Z,30.06
2017-04-30T18:59:24.766Z,30.53
2017-04-30T19:01:52.387Z,31.39
2017-04-30T19:04:20.384Z,31.46
2017-04-30T19:06:47.917Z,31.29
2017-04-30T19:09:15.482Z,30.97
2017-04-30T19:11:43.019Z,31.02
2017-04-30T19:14:10.755Z,30.66
2017-04-30T19:16:38.460Z,31.49
2017-04-30T19:19:05.984Z,31.09
2017-04-30T19:21:33.507Z,31.70
2017-04-30T19:24:01.054Z,31.57
2017-04-30T19:26:28.590Z,31.64
2017-04-30T19:28:56.167Z,31.71
2017-04-30T19:31:23.681Z,31.98
2017-04-30T19:33:51.422Z,32.03
2017-04-30T19:36:18.950Z,32.17
2017-04-30T19:38:46.501Z,32.07
2017-04-30T19:41:14.087Z,32.22
2017-04-30T19:43:41.630Z,33.08
2017-04-30T19:46:09.211Z,32.89
2017-04-30T19:48:36.747Z,32.62
2017-04-30T19:51:04.474Z,32.73
2017-04-30T19:53:32.032Z,33.00
2017-04-30T19:55:59.571Z,33.44
2017-04-30T19:58:27.153Z,33.13
2017-04-30T20:00:54.707Z,33.04
2017-04-30T20:03:22.436Z,33.54
2017-04-30T20:05:50.004Z,33.32
2017-04-30T20:08:17.540Z,33.27
2017-04-30T20:10:45.151Z,33.65
2017-04-30T20:13:12.700Z,33.79
2017-04-30T20:15:40.527Z,34.14
2017-04-30T20:18:08.074Z,34.90
2017-04-30T20:20:35.617Z,34.76
2017-04-30T20:23:03.242Z,33.87
2017-04-30T20:25:30.769Z,33.26
2017-04-30T20:27:58.632Z,33.23
2017-04-30T20:30:26.247Z,33.45
2017-04-30T20:32:53.804Z,33.61
2017-04-30T20:35:21.438Z,33.93
2017-04-30T20:37:49.000Z,34.03
2017-04-30T20:40:16.567Z,34.07
2017-04-30T20:42:44.150Z,34.17
2017-04-30T20:45:11.723Z,34.27
2017-04-30T20:47:39.279Z,34.32
2017-04-30T20:50:07.048Z,34.46
2017-04-30T20:52:34.566Z,34.48
2017-04-30T20:55:02.085Z,34.67
2017-04-30T20:57:29.644Z,34.82
2017-04-30T20:59:57.156Z,35.08
2017-04-30T21:02:25.121Z,35.03
2017-04-30T21:04:52.656Z,35.17
2017-04-30T21:07:20.197Z,35.23
2017-04-30T21:09:47.811Z,35.39
2017-04-30T21:12:15.432Z,35.47
2017-04-30T21:14:43.252Z,35.36
2017-04-30T21:17:10.809Z,35.54
2017-04-30T21:19:38.366Z,35.67
2017-04-30T21:22:05.960Z,35.80
2017-04-30T21:24:33.481Z,35.89
2017-04-30T21:27:01.244Z,35.89
2017-04-30T21:29:28.791Z,35.90
2017-04-30T21:31:56.367Z,35.97
2017-04-30T21:34:23.961Z,35.87
2017-04-30T21:36:51.507Z,36.12
2017-04-30T21:39:19.113Z,36.21
2017-04-30T21:41:46.666Z,36.72
2017-04-30T21:44:14.371Z,36.25
2017-04-30T21:46:41.915Z,36.28
2017-04-30T21:49:09.466Z,36.48
2017-04-30T21:51:37.036Z,36.63
2017-04-30T21:54:04.605Z,36.61
2017-04-30T21:56:32.251Z,36.73
2017-04-30T21:58:59.786Z,36.90
2017-04-30T22:01:27.532Z,36.89
2017-04-30T22:03:55.146Z,37.24
2017-04-30T22:06:22.793Z,37.08
2017-04-30T22:08:50.370Z,37.19
2017-04-30T22:11:17.935Z,37.12
2017-04-30T22:13:45.512Z,37.16
2017-04-30T22:16:13.146Z,37.35
2017-04-30T22:18:40.761Z,37.29
2017-04-30T22:21:08.301Z,37.47
2017-04-30T22:23:35.860Z,37.57
2017-04-30T22:26:03.433Z,37.58
2017-04-30T22:28:30.950Z,37.57
2017-04-30T22:30:58.673Z,37.62
2017-04-30T22:33:26.192Z,38.03
2017-04-30T22:35:53.740Z,38.09
2017-04-30T22:38:21.296Z,38.02
2017-04-30T22:40:48.834Z,38.26
2017-04-30T22:43:16.473Z,38.21
2017-04-30T22:45:44.064Z,38.18
2017-04-30T22:48:11.900Z,38.10
2017-04-30T22:50:39.415Z,38.26
2017-04-30T22:53:06.936Z,38.24
2017-04-30T22:55:34.499Z,38.32
2017-04-30T22:58:02.063Z,38.35
2017-04-30T23:00:29.644Z,38.24
2017-04-30T23:02:57.151Z,38.35
2017-04-30T23:05:24.721Z,38.25
2017-04-30T23:07:52.293Z,38.26
2017-04-30T23:10:19.904Z,38.48
2017-04-30T23:12:47.548Z,38.59
2017-04-30T23:15:15.108Z,38.85
2017-04-30T23:17:42.629Z,38.78
2017-04-30T23:20:10.401Z,38.61
2017-04-30T23:22:37.927Z,38.73
2017-04-30T23:25:05.816Z,38.68
2017-04-30T23:27:33.361Z,38.76
2017-04-30T23:30:00.889Z,38.80
2017-04-30T23:32:28.492Z,38.60
2017-04-30T23:34:56.099Z,38.95
2017-04-30T23:37:23.676Z,38.73
2017-04-30T23:39:51.224Z,38.93
2017-04-30T23:42:18.976Z,39.01
2017-04-30T23:44:46.509Z,39.11
2017-04-30T23:47:14.093Z,39.18
2017-04-30T23:49:41.651Z,39.08
2017-04-30T23:52:09.176Z,39.28
2017-04-30T23:54:36.736Z,39.33
2017-04-30T23:57:04.249Z,39.43
2017-04-30T23:59:31.937Z,39.11
